createdAt,value
2022-11-21T00:01:56.334Z,-0.08
2022-11-21T00:04:43.774Z,-0.11
2022-11-21T00:07:31.212Z,-0.14
2022-11-21T00:10:18.676Z,-0.14
2022-11-21T00:13:06.441Z,-0.12
2022-11-21T00:15:53.881Z,-0.11
2022-11-21T00:18:42.417Z,-0.09
2022-11-21T00:21:29.884Z,-0.07
2022-11-21T00:24:17.244Z,-0.08
2022-11-21T00:27:04.613Z,-0.10
2022-11-21T00:29:51.918Z,-0.14
2022-11-21T00:32:39.357Z,-0.14
2022-11-21T00:35:27.232Z,-0.14
2022-11-21T00:38:14.605Z,-0.12
2022-11-21T00:41:02.117Z,-0.09
2022-11-21T00:43:49.533Z,-0.05
2022-11-21T00:46:36.953Z,-0.07
2022-11-21T00:49:24.405Z,-0.13
2022-11-21T00:52:11.890Z,-0.15
2022-11-21T00:54:59.299Z,-0.15
2022-11-21T00:57:46.727Z,-0.15
2022-11-21T01:00:34.167Z,-0.16
2022-11-21T01:03:21.639Z,-0.19
2022-11-21T01:06:13.220Z,-0.24
2022-11-21T01:09:00.667Z,-0.25
2022-11-21T01:11:48.033Z,-0.26
2022-11-21T01:14:35.476Z,-0.23
2022-11-21T01:17:22.875Z,-0.20
2022-11-21T01:20:10.388Z,-0.20
2022-11-21T01:22:57.798Z,-0.22
2022-11-21T01:25:45.180Z,-0.20
2022-11-21T01:28:32.853Z,-0.23
2022-11-21T01:31:21.650Z,-0.27
2022-11-21T01:34:09.146Z,-0.31
2022-11-21T01:36:56.529Z,-0.37
2022-11-21T01:39:43.870Z,-0.42
2022-11-21T01:42:43.886Z,-0.46
2022-11-21T01:45:52.560Z,-0.52
2022-11-21T01:48:46.078Z,-0.56
2022-11-21T01:51:36.442Z,-0.61
2022-11-21T01:54:27.370Z,-0.65
2022-11-21T01:57:17.492Z,-0.67
2022-11-21T02:00:08.335Z,-0.66
2022-11-21T02:02:58.782Z,-0.68
2022-11-21T02:05:46.907Z,-0.71
2022-11-21T02:08:34.430Z,-0.80
2022-11-21T02:11:35.309Z,-0.89
2022-11-21T02:14:23.582Z,-0.96
2022-11-21T02:17:11.084Z,-0.98
2022-11-21T02:20:09.644Z,-0.97
2022-11-21T02:23:09.345Z,-0.95
2022-11-21T02:25:56.790Z,-0.93
2022-11-21T02:28:44.480Z,-0.95
2022-11-21T02:31:31.869Z,-1.02
2022-11-21T02:34:19.612Z,-1.06
2022-11-21T02:37:08.610Z,-1.09
2022-11-21T02:39:58.625Z,-1.12
2022-11-21T02:42:59.146Z,-1.21
2022-11-21T02:45:46.699Z,-1.28
2022-11-21T02:48:35.192Z,-1.35
2022-11-21T02:51:22.714Z,-1.40
2022-11-21T02:54:10.068Z,-1.40
2022-11-21T02:56:57.716Z,-1.36
2022-11-21T02:59:45.085Z,-1.31
2022-11-21T03:02:32.485Z,-1.25
2022-11-21T03:05:20.765Z,-1.21
2022-11-21T03:08:08.235Z,-1.17
2022-11-21T03:10:55.641Z,-1.12
2022-11-21T03:13:43.040Z,-1.05
2022-11-21T03:16:30.387Z,-0.98
2022-11-21T03:19:17.788Z,-0.92
2022-11-21T03:22:05.157Z,-0.89
2022-11-21T03:24:52.554Z,-0.90
2022-11-21T03:27:39.916Z,-0.93
2022-11-21T03:30:27.596Z,-0.96
2022-11-21T03:33:15.008Z,-0.95
2022-11-21T03:36:02.472Z,-0.93
2022-11-21T03:38:49.934Z,-0.93
2022-11-21T03:41:37.334Z,-0.93
2022-11-21T03:44:25.294Z,-0.95
2022-11-21T03:47:13.001Z,-0.96
2022-11-21T03:50:00.526Z,-0.96
2022-11-21T03:52:48.064Z,-0.95
2022-11-21T03:55:35.491Z,-0.93
2022-11-21T03:58:22.908Z,-0.90
2022-11-21T04:01:10.874Z,-0.91
2022-11-21T04:03:58.489Z,-0.90
2022-11-21T04:06:45.915Z,-0.91
2022-11-21T04:09:33.666Z,-0.92
2022-11-21T04:12:21.141Z,-0.95
2022-11-21T04:15:13.502Z,-0.97
2022-11-21T04:18:01.493Z,-1.00
2022-11-21T04:20:48.879Z,-1.02
2022-11-21T04:23:36.497Z,-1.04
2022-11-21T04:26:23.847Z,-1.02
2022-11-21T04:29:11.282Z,-1.01
2022-11-21T04:31:58.690Z,-1.00
2022-11-21T04:34:46.029Z,-1.00
2022-11-21T04:37:33.503Z,-1.02
2022-11-21T04:40:21.161Z,-1.01
2022-11-21T04:43:08.593Z,-0.98
2022-11-21T04:45:55.999Z,-0.98
2022-11-21T04:48:43.455Z,-0.95
2022-11-21T05:44:06.780Z,-0.95
2022-11-21T05:46:54.547Z,-0.94
2022-11-21T05:49:44.377Z,-0.90
2022-11-21T14:05:02.320Z,-0.49
2022-11-21T16:34:58.362Z,-0.97
2022-11-21T16:37:47.234Z,-0.88
2022-11-21T16:40:35.093Z,-0.86
2022-11-21T16:43:23.611Z,-0.79
2022-11-21T16:46:11.265Z,-0.78
2022-11-21T16:49:00.974Z,-0.73
2022-11-21T16:51:49.053Z,-0.78
2022-11-21T16:54:36.693Z,-0.79
2022-11-21T16:57:24.338Z,-0.80
2022-11-21T17:00:12.317Z,-0.78
2022-11-21T17:03:00.803Z,-0.77
2022-11-21T17:05:58.415Z,-0.80
2022-11-21T17:08:47.200Z,-0.82
2022-11-21T17:11:35.003Z,-0.79
2022-11-21T17:14:22.775Z,-0.76
2022-11-21T17:17:10.439Z,-0.77
2022-11-21T17:19:59.087Z,-0.82
2022-11-21T17:22:47.121Z,-0.88
2022-11-21T17:25:34.914Z,-0.88
2022-11-21T17:28:22.723Z,-0.90
2022-11-21T17:37:15.594Z,-0.95
2022-11-21T17:40:25.190Z,-0.90
2022-11-21T17:43:58.298Z,-0.94
2022-11-21T17:47:05.958Z,-0.90
2022-11-21T17:49:53.829Z,-0.90
2022-11-21T17:52:41.603Z,-0.83
2022-11-21T17:55:29.182Z,-0.83
2022-11-21T17:58:16.746Z,-0.86
2022-11-21T18:01:06.188Z,-0.87
2022-11-21T18:04:02.321Z,-0.89
2022-11-21T18:06:50.360Z,-0.93
2022-11-21T18:09:40.471Z,-0.91
2022-11-21T18:12:28.123Z,-0.88
2022-11-21T18:15:15.751Z,-0.90
2022-11-21T18:18:06.119Z,-0.94
2022-11-21T18:21:12.009Z,-0.96
2022-11-21T18:24:00.400Z,-0.98
2022-11-21T18:26:48.366Z,-1.02
2022-11-21T18:29:37.168Z,-1.04
2022-11-21T18:32:25.110Z,-1.08
2022-11-21T18:35:12.871Z,-1.05
2022-11-21T18:38:00.613Z,-1.06
2022-11-21T18:40:48.208Z,-1.13
2022-11-21T18:43:42.519Z,-1.13
2022-11-21T18:46:32.004Z,-1.12
2022-11-21T18:49:22.077Z,-1.12
2022-11-21T18:52:09.775Z,-1.12
2022-11-21T18:54:57.517Z,-1.14
2022-11-21T18:57:45.271Z,-1.14
2022-11-21T19:00:33.016Z,-1.19
2022-11-21T19:03:20.768Z,-1.20
2022-11-21T19:06:17.850Z,-1.27
2022-11-21T19:09:08.623Z,-1.30
2022-11-21T19:11:59.182Z,-1.25
2022-11-21T19:14:47.238Z,-1.26
2022-11-21T19:17:35.096Z,-1.26
2022-11-21T19:20:22.846Z,-1.28
2022-11-21T19:23:10.562Z,-1.30
2022-11-21T19:26:02.847Z,-1.25
2022-11-21T19:28:52.819Z,-1.26
2022-11-21T19:31:45.993Z,-1.22
2022-11-21T19:34:34.047Z,-1.21
2022-11-21T19:37:21.898Z,-1.22
2022-11-21T19:40:14.400Z,-1.31
2022-11-21T19:43:02.760Z,-1.30
2022-11-21T19:45:53.718Z,-1.34
2022-11-21T19:48:53.546Z,-1.31
2022-11-21T19:51:42.233Z,-1.30
2022-11-21T19:54:30.070Z,-1.29
2022-11-21T19:57:17.879Z,-1.29
2022-11-21T20:00:08.539Z,-1.26
2022-11-21T20:02:57.541Z,-1.27
2022-11-21T20:05:45.250Z,-1.30
2022-11-21T20:08:33.361Z,-1.33
2022-11-21T20:11:22.384Z,-1.34
2022-11-21T20:14:10.412Z,-1.37
2022-11-21T20:16:58.031Z,-1.40
2022-11-21T20:19:50.632Z,-1.39
2022-11-21T20:22:38.485Z,-1.46
2022-11-21T20:25:26.154Z,-1.47
2022-11-21T20:28:13.769Z,-1.48
2022-11-21T20:31:22.858Z,-1.47
2022-11-21T20:34:12.790Z,-1.51
2022-11-21T20:37:00.870Z,-1.52
2022-11-21T20:39:48.517Z,-1.55
2022-11-21T20:42:37.413Z,-1.56
2022-11-21T20:46:07.139Z,-1.58
2022-11-21T20:48:35.742Z,-1.58
2022-11-21T20:54:31.832Z,-1.48
2022-11-21T20:57:19.654Z,-1.41
2022-11-21T21:00:08.019Z,-1.38
2022-11-21T21:02:55.736Z,-1.39
2022-11-21T21:05:43.653Z,-1.38
2022-11-21T21:08:32.094Z,-1.40
2022-11-21T21:11:51.368Z,-1.40
2022-11-21T21:14:30.386Z,-1.40
2022-11-21T21:17:18.071Z,-1.39
2022-11-21T21:20:06.504Z,-1.38
2022-11-21T21:22:54.933Z,-1.44
2022-11-21T21:25:42.881Z,-1.43
2022-11-21T21:28:30.740Z,-1.42
2022-11-21T21:31:21.033Z,-1.41
2022-11-21T21:34:09.926Z,-1.39
2022-11-21T21:36:57.502Z,-1.37
2022-11-21T21:39:45.094Z,-1.35
2022-11-21T21:42:32.770Z,-1.37
2022-11-21T21:45:20.475Z,-1.40
2022-11-21T21:48:08.094Z,-1.41
2022-11-21T21:51:04.690Z,-1.37
2022-11-21T21:53:52.855Z,-1.38
2022-11-21T21:56:40.420Z,-1.38
2022-11-21T21:59:28.057Z,-1.36
2022-11-21T22:02:15.743Z,-1.34
2022-11-21T22:05:03.631Z,-1.33
2022-11-21T22:07:51.341Z,-1.33
2022-11-21T22:10:38.998Z,-1.38
2022-11-21T22:13:26.679Z,-1.33
2022-11-21T22:16:15.134Z,-1.29
2022-11-21T22:19:02.774Z,-1.27
2022-11-21T22:21:50.484Z,-1.30
2022-11-21T22:24:39.264Z,-1.32
2022-11-21T22:27:27.214Z,-1.37
2022-11-21T22:30:14.825Z,-1.42
2022-11-21T22:33:02.651Z,-1.44
2022-11-21T22:35:50.918Z,-1.43
2022-11-21T22:38:38.600Z,-1.42
2022-11-21T22:41:27.344Z,-1.35
2022-11-21T22:44:15.024Z,-1.36
2022-11-21T22:47:02.726Z,-1.41
2022-11-21T22:49:50.358Z,-1.45
2022-11-21T22:52:38.129Z,-1.45
2022-11-21T22:55:26.832Z,-1.48
2022-11-21T22:58:14.502Z,-1.48
2022-11-21T23:01:05.548Z,-1.46
2022-11-21T23:03:53.696Z,-1.46
2022-11-21T23:06:41.489Z,-1.46
2022-11-21T23:09:29.331Z,-1.45
2022-11-21T23:12:17.080Z,-1.47
2022-11-21T23:15:05.204Z,-1.52
2022-11-21T23:17:53.097Z,-1.51
2022-11-21T23:20:42.792Z,-1.54
2022-11-21T23:23:30.934Z,-1.55
2022-11-21T23:26:19.009Z,-1.53
2022-11-21T23:29:08.846Z,-1.55
2022-11-21T23:31:57.009Z,-1.53
2022-11-21T23:34:44.792Z,-1.45
2022-11-21T23:37:32.508Z,-1.40
2022-11-21T23:40:20.321Z,-1.38
2022-11-21T23:43:08.051Z,-1.33
2022-11-21T23:45:55.903Z,-1.29
2022-11-21T23:48:43.669Z,-1.27
2022-11-21T23:51:31.390Z,-1.26
2022-11-21T23:54:19.132Z,-1.26
2022-11-21T23:57:06.958Z,-1.31
2022-11-21T23:59:55.192Z,-1.29
